Time;durP1;ratioP1;P1;durP2;ratioP2;P2;SDS_P1;SDS_P2;PMS_P1;PMS_P2;Temp;Humidity;BMP_temperature;BMP_pressure;BME280_temperature;BME280_humidity;BME280_pressure;Samples;Min_cycle;Max_cycle;Signal;HPM_P1;HPM_P2
2022/11/29 00:00:46;;;;;;;36.33;20.80;;;;;;;;;;5155115;27;20550;-68
2022/11/29 00:03:13;;;;;;;39.80;21.77;;;;;;;;;;5154983;27;20456;-68
2022/11/29 00:05:40;;;;;;;34.50;20.80;;;;;;;;;;5155021;27;20439;-68
2022/11/29 00:08:09;;;;;;;43.07;24.07;;;;;;;;;;5154482;27;20509;-68
2022/11/29 00:10:36;;;;;;;40.50;24.80;;;;;;;;;;5154934;27;20433;-70
2022/11/29 00:13:03;;;;;;;43.50;23.60;;;;;;;;;;5154743;27;20862;-68
2022/11/29 00:15:30;;;;;;;34.90;20.03;;;;;;;;;;5154851;27;20475;-68
2022/11/29 00:17:57;;;;;;;40.13;22.67;;;;;;;;;;5154788;27;20816;-69
2022/11/29 00:20:24;;;;;;;34.60;21.33;;;;;;;;;;5154955;27;20432;-68
2022/11/29 00:22:51;;;;;;;36.17;21.80;;;;;;;;;;5154580;27;20526;-68
2022/11/29 00:25:20;;;;;;;36.70;22.40;;;;;;;;;;5154986;27;20534;-68
2022/11/29 00:27:47;;;;;;;32.03;18.80;;;;;;;;;;5154576;27;21040;-68
2022/11/29 00:30:15;;;;;;;35.47;19.90;;;;;;;;;;5154483;27;20456;-68
2022/11/29 00:32:42;;;;;;;39.20;19.60;;;;;;;;;;5154720;27;20805;-68
2022/11/29 00:35:09;;;;;;;35.70;21.47;;;;;;;;;;5154427;27;20444;-68
2022/11/29 00:37:36;;;;;;;36.87;21.00;;;;;;;;;;5154699;27;20466;-68
2022/11/29 00:40:04;;;;;;;35.00;20.90;;;;;;;;;;5154810;27;20448;-68
2022/11/29 00:42:32;;;;;;;37.53;21.40;;;;;;;;;;5154641;27;20451;-68
2022/11/29 00:44:59;;;;;;;39.63;20.77;;;;;;;;;;5155119;27;20443;-68
2022/11/29 00:47:26;;;;;;;37.47;21.60;;;;;;;;;;5158396;27;20998;-68
2022/11/29 00:49:54;;;;;;;34.93;20.07;;;;;;;;;;5158559;27;20451;-68
2022/11/29 00:52:21;;;;;;;36.50;21.60;;;;;;;;;;5158163;27;20451;-68
2022/11/29 00:54:48;;;;;;;38.67;22.43;;;;;;;;;;5158285;27;20454;-68
2022/11/29 00:57:15;;;;;;;36.60;18.87;;;;;;;;;;5158071;27;20464;-68
2022/11/29 00:59:43;;;;;;;42.07;22.30;;;;;;;;;;5158646;27;20432;-68
2022/11/29 01:02:11;;;;;;;41.80;21.40;;;;;;;;;;5158330;27;20946;-68
2022/11/29 01:04:38;;;;;;;37.67;21.17;;;;;;;;;;5158062;27;21003;-68
2022/11/29 01:07:05;;;;;;;38.70;20.40;;;;;;;;;;5157703;27;20487;-68
2022/11/29 01:09:32;;;;;;;43.47;22.97;;;;;;;;;;5158236;27;20432;-68
2022/11/29 01:11:59;;;;;;;37.20;21.30;;;;;;;;;;5157935;27;20818;-68
2022/11/29 01:14:26;;;;;;;36.80;21.33;;;;;;;;;;5157989;27;20435;-68
2022/11/29 01:16:55;;;;;;;44.90;23.30;;;;;;;;;;5158005;27;20482;-68
2022/11/29 01:19:22;;;;;;;37.80;21.27;;;;;;;;;;5158031;27;20929;-68
2022/11/29 01:21:49;;;;;;;38.53;21.40;;;;;;;;;;5157913;27;20454;-68
2022/11/29 01:24:16;;;;;;;31.27;19.37;;;;;;;;;;5157940;27;20439;-68
2022/11/29 01:26:43;;;;;;;36.47;20.60;;;;;;;;;;5157736;27;20463;-68
2022/11/29 01:29:12;;;;;;;31.00;20.53;;;;;;;;;;5158114;27;20432;-68
2022/11/29 01:31:39;;;;;;;34.47;19.63;;;;;;;;;;5157742;27;20454;-68
2022/11/29 01:34:08;;;;;;;34.97;22.20;;;;;;;;;;5157407;27;20450;-68
2022/11/29 01:36:35;;;;;;;34.53;20.33;;;;;;;;;;5157675;27;20503;-68
2022/11/29 01:39:03;;;;;;;47.90;20.40;;;;;;;;;;5157614;27;20439;-68
2022/11/29 01:41:30;;;;;;;40.43;20.57;;;;;;;;;;5157546;27;20443;-68
2022/11/29 01:44:00;;;;;;;35.47;21.60;;;;;;;;;;5157225;27;20478;-68
2022/11/29 01:46:27;;;;;;;38.60;20.77;;;;;;;;;;5157483;27;21013;-68
2022/11/29 01:48:56;;;;;;;36.20;19.87;;;;;;;;;;5157133;27;20552;-68
2022/11/29 01:51:25;;;;;;;38.00;21.27;;;;;;;;;;5157101;27;20448;-68
2022/11/29 01:53:52;;;;;;;36.20;19.40;;;;;;;;;;5157052;27;20447;-68
2022/11/29 01:56:19;;;;;;;36.90;21.33;;;;;;;;;;5157508;27;20443;-68
2022/11/29 01:58:46;;;;;;;33.27;20.37;;;;;;;;;;5157288;27;20931;-68
2022/11/29 02:01:14;;;;;;;36.33;21.27;;;;;;;;;;5157202;27;20450;-68
2022/11/29 02:03:42;;;;;;;33.90;20.23;;;;;;;;;;5157159;27;20451;-68
2022/11/29 02:06:09;;;;;;;40.80;23.70;;;;;;;;;;5156938;27;20466;-68
2022/11/29 02:08:39;;;;;;;32.60;19.90;;;;;;;;;;5157438;27;20886;-68
2022/11/29 02:11:14;;;;;;;32.73;20.27;;;;;;;;;;5156982;27;20439;-68
2022/11/29 02:13:46;;;;;;;42.87;22.57;;;;;;;;;;5156790;27;20459;-68
2022/11/29 02:16:19;;;;;;;32.47;19.10;;;;;;;;;;5156862;27;20436;-68
2022/11/29 02:18:51;;;;;;;34.17;19.03;;;;;;;;;;5156869;27;20915;-68
2022/11/29 02:21:39;;;;;;;31.90;20.17;;;;;;;;;;5156838;27;20435;-68
2022/11/29 02:24:33;;;;;;;34.33;21.63;;;;;;;;;;5148798;27;20447;-68
2022/11/29 02:27:08;;;;;;;31.73;19.80;;;;;;;;;;5156540;27;20468;-68
2022/11/29 02:29:45;;;;;;;41.77;20.80;;;;;;;;;;5156441;27;20432;-68
2022/11/29 02:32:30;;;;;;;35.83;19.50;;;;;;;;;;5156613;27;20530;-68
2022/11/29 02:35:03;;;;;;;34.33;21.97;;;;;;;;;;5156198;27;20432;-68
2022/11/29 02:37:40;;;;;;;39.20;23.20;;;;;;;;;;5156393;27;20459;-68
2022/11/29 02:40:14;;;;;;;38.97;24.03;;;;;;;;;;5156444;27;20431;-68
2022/11/29 02:42:51;;;;;;;41.53;23.00;;;;;;;;;;5156889;27;20435;-68
2022/11/29 02:45:33;;;;;;;46.37;25.30;;;;;;;;;;5156282;27;20431;-69
2022/11/29 02:48:07;;;;;;;34.20;21.30;;;;;;;;;;5152030;27;20855;-69
2022/11/29 02:50:38;;;;;;;34.60;22.33;;;;;;;;;;5155822;27;20435;-68
2022/11/29 02:53:08;;;;;;;42.33;22.50;;;;;;;;;;5156175;27;20440;-68
2022/11/29 02:55:38;;;;;;;42.33;22.87;;;;;;;;;;5156068;27;20801;-68
2022/11/29 02:58:10;;;;;;;44.13;23.20;;;;;;;;;;5156311;27;20520;-68
2022/11/29 03:00:41;;;;;;;40.43;23.43;;;;;;;;;;5155981;27;20438;-68
2022/11/29 03:03:15;;;;;;;40.53;24.07;;;;;;;;;;5155846;27;20428;-68
2022/11/29 03:05:46;;;;;;;44.87;24.13;;;;;;;;;;5155590;27;20432;-68
2022/11/29 03:08:18;;;;;;;41.10;25.57;;;;;;;;;;5155182;27;20535;-68
2022/11/29 03:10:53;;;;;;;41.90;24.30;;;;;;;;;;5155825;27;20436;-68
2022/11/29 03:13:24;;;;;;;35.67;22.43;;;;;;;;;;5155681;27;20454;-68
2022/11/29 03:15:57;;;;;;;43.10;22.60;;;;;;;;;;5155218;27;20450;-68
2022/11/29 03:18:31;;;;;;;40.30;23.23;;;;;;;;;;5155250;27;20475;-68
2022/11/29 03:21:03;;;;;;;45.30;23.93;;;;;;;;;;5155659;27;20477;-68
2022/11/29 03:23:35;;;;;;;39.00;22.07;;;;;;;;;;5155276;27;20427;-68
2022/11/29 03:26:05;;;;;;;42.30;20.97;;;;;;;;;;5155470;27;20935;-68
2022/11/29 03:28:35;;;;;;;39.10;23.37;;;;;;;;;;5155754;27;20479;-68
2022/11/29 03:31:06;;;;;;;38.53;21.60;;;;;;;;;;5155381;27;20454;-68
2022/11/29 03:33:39;;;;;;;41.20;23.73;;;;;;;;;;5155508;27;20875;-68
2022/11/29 03:36:10;;;;;;;40.90;24.00;;;;;;;;;;5155375;27;20439;-68
2022/11/29 03:38:39;;;;;;;46.60;23.70;;;;;;;;;;5155011;27;20439;-68
2022/11/29 03:41:13;;;;;;;44.23;24.47;;;;;;;;;;5155375;27;20814;-68
2022/11/29 03:43:43;;;;;;;45.33;22.93;;;;;;;;;;5155176;27;20815;-68
2022/11/29 03:46:12;;;;;;;46.73;23.57;;;;;;;;;;5155089;27;20921;-68
2022/11/29 03:48:45;;;;;;;45.47;24.00;;;;;;;;;;5155101;27;20984;-68
2022/11/29 03:51:14;;;;;;;40.23;23.80;;;;;;;;;;5154852;27;20436;-68
2022/11/29 03:53:45;;;;;;;44.10;24.17;;;;;;;;;;5155384;27;20501;-68
2022/11/29 03:56:36;;;;;;;39.87;22.17;;;;;;;;;;5155080;27;20432;-68
2022/11/29 03:59:11;;;;;;;38.23;23.10;;;;;;;;;;5129526;27;20452;-68
2022/11/29 04:01:48;;;;;;;47.00;25.93;;;;;;;;;;5155078;27;20515;-68
2022/11/29 04:04:33;;;;;;;47.40;24.97;;;;;;;;;;5154949;27;20435;-68
2022/11/29 04:07:07;;;;;;;39.77;23.60;;;;;;;;;;5154646;27;20468;-68
2022/11/29 04:09:42;;;;;;;43.57;26.13;;;;;;;;;;5154985;27;20827;-68
2022/11/29 04:12:21;;;;;;;41.70;24.10;;;;;;;;;;5154888;27;20473;-68
2022/11/29 04:15:03;;;;;;;46.07;26.50;;;;;;;;;;5154601;27;20492;-68
2022/11/29 04:17:38;;;;;;;43.97;24.70;;;;;;;;;;5154851;27;20902;-68
2022/11/29 04:20:24;;;;;;;36.97;22.20;;;;;;;;;;5155761;27;20431;-68
2022/11/29 04:23:09;;;;;;;36.90;20.60;;;;;;;;;;5158864;27;20439;-68
2022/11/29 04:25:49;;;;;;;35.13;22.83;;;;;;;;;;5159110;27;20919;-68
2022/11/29 04:28:25;;;;;;;39.70;22.77;;;;;;;;;;5158851;27;20494;-68
2022/11/29 04:30:56;;;;;;;49.27;25.03;;;;;;;;;;5158947;27;20904;-69
2022/11/29 04:33:50;;;;;;;41.93;24.10;;;;;;;;;;5158973;27;20431;-68
2022/11/29 04:36:44;;;;;;;44.87;24.30;;;;;;;;;;5098734;27;20447;-68
2022/11/29 04:39:29;;;;;;;39.40;22.57;;;;;;;;;;5098879;27;20936;-68
2022/11/29 04:42:14;;;;;;;42.10;23.73;;;;;;;;;;5157903;27;20447;-68
2022/11/29 04:44:48;;;;;;;40.27;23.03;;;;;;;;;;5141688;27;20451;-68
2022/11/29 04:47:20;;;;;;;43.73;24.93;;;;;;;;;;5158671;27;20464;-68
2022/11/29 04:49:56;;;;;;;41.43;23.93;;;;;;;;;;5158323;27;20470;-69
2022/11/29 04:52:37;;;;;;;54.80;26.57;;;;;;;;;;5158767;27;20431;-69
2022/11/29 04:55:11;;;;;;;48.83;26.60;;;;;;;;;;5158381;27;20439;-69
2022/11/29 04:57:40;;;;;;;45.10;25.47;;;;;;;;;;5158450;27;20477;-69
2022/11/29 05:00:11;;;;;;;43.47;24.63;;;;;;;;;;5158752;27;20448;-69
2022/11/29 05:02:41;;;;;;;46.20;24.80;;;;;;;;;;5158497;27;20440;-69
2022/11/29 05:05:16;;;;;;;53.53;25.83;;;;;;;;;;5158546;27;20432;-69
2022/11/29 05:07:48;;;;;;;42.33;23.17;;;;;;;;;;5158478;27;20471;-69
2022/11/29 05:10:22;;;;;;;43.83;21.80;;;;;;;;;;5158295;27;20436;-69
2022/11/29 05:12:54;;;;;;;40.47;23.73;;;;;;;;;;5157441;27;20454;-69
2022/11/29 05:15:45;;;;;;;53.77;28.77;;;;;;;;;;5157041;27;20450;-69
2022/11/29 05:18:19;;;;;;;37.30;23.30;;;;;;;;;;5156959;27;21019;-69
2022/11/29 05:20:48;;;;;;;33.97;21.07;;;;;;;;;;5156861;27;20439;-69
2022/11/29 05:23:24;;;;;;;43.23;23.10;;;;;;;;;;5156861;27;20432;-69
2022/11/29 05:25:55;;;;;;;41.30;24.07;;;;;;;;;;5156874;27;20435;-69
2022/11/29 05:28:26;;;;;;;43.07;24.60;;;;;;;;;;5156550;27;20493;-69
2022/11/29 05:31:07;;;;;;;42.20;23.57;;;;;;;;;;5156391;27;20793;-69
2022/11/29 05:33:43;;;;;;;44.03;24.53;;;;;;;;;;5156668;27;20435;-69
2022/11/29 05:36:14;;;;;;;40.87;23.67;;;;;;;;;;5156548;27;20432;-69
2022/11/29 05:38:56;;;;;;;42.70;23.67;;;;;;;;;;5156538;27;20428;-69
2022/11/29 05:41:44;;;;;;;42.13;22.20;;;;;;;;;;5156658;27;20440;-69
2022/11/29 05:44:13;;;;;;;39.90;23.53;;;;;;;;;;5156433;27;20769;-69
2022/11/29 05:46:46;;;;;;;39.83;23.70;;;;;;;;;;5156053;27;20467;-69
2022/11/29 05:49:18;;;;;;;45.40;24.43;;;;;;;;;;5156289;27;20468;-69
2022/11/29 05:51:49;;;;;;;42.80;22.93;;;;;;;;;;5156272;27;20436;-69
2022/11/29 05:54:20;;;;;;;35.60;21.87;;;;;;;;;;5155890;27;20443;-69
2022/11/29 05:56:51;;;;;;;37.00;21.97;;;;;;;;;;5156186;27;20913;-69
2022/11/29 05:59:20;;;;;;;43.40;25.33;;;;;;;;;;5156228;27;20425;-69
2022/11/29 06:01:51;;;;;;;41.00;24.17;;;;;;;;;;5156079;27;20848;-69
2022/11/29 06:04:21;;;;;;;48.50;23.23;;;;;;;;;;5156287;27;20775;-69
2022/11/29 06:06:49;;;;;;;40.90;25.70;;;;;;;;;;5155798;27;20960;-70
2022/11/29 06:09:19;;;;;;;39.87;24.77;;;;;;;;;;5156009;27;20490;-69
2022/11/29 06:14:35;;;;;;;50.23;26.13;;;;;;;;;;5110449;27;20670;-71
2022/11/29 06:17:07;;;;;;;44.23;25.70;;;;;;;;;;5110990;28;20458;-71
2022/11/29 06:19:46;;;;;;;40.27;24.47;;;;;;;;;;5111118;28;20432;-71
2022/11/29 06:22:30;;;;;;;44.30;23.17;;;;;;;;;;5110376;28;20434;-71
2022/11/29 06:25:03;;;;;;;46.00;25.50;;;;;;;;;;5110323;28;20452;-71
2022/11/29 06:27:39;;;;;;;41.57;24.20;;;;;;;;;;5110833;28;20469;-70
2022/11/29 06:30:11;;;;;;;40.17;22.00;;;;;;;;;;5110712;28;20430;-71
2022/11/29 06:32:42;;;;;;;35.70;21.23;;;;;;;;;;5110476;28;20887;-70
2022/11/29 06:35:12;;;;;;;34.57;21.80;;;;;;;;;;5110947;28;20528;-71
2022/11/29 06:37:41;;;;;;;39.13;20.10;;;;;;;;;;5110584;28;20473;-71
2022/11/29 06:40:11;;;;;;;45.87;23.60;;;;;;;;;;5110955;28;20434;-70
2022/11/29 06:42:38;;;;;;;194.20;103.07;;;;;;;;;;5110708;28;20468;-70
2022/11/29 06:45:06;;;;;;;51.63;27.50;;;;;;;;;;5110105;28;20486;-70
2022/11/29 06:47:37;;;;;;;42.97;23.60;;;;;;;;;;5110694;28;20998;-71
2022/11/29 06:50:06;;;;;;;56.10;24.17;;;;;;;;;;5110675;28;20438;-71
2022/11/29 06:52:38;;;;;;;43.87;24.37;;;;;;;;;;5110207;28;20492;-70
2022/11/29 06:55:15;;;;;;;45.87;25.60;;;;;;;;;;5110268;28;20524;-71
2022/11/29 06:57:52;;;;;;;45.00;27.20;;;;;;;;;;5109073;28;20506;-70
2022/11/29 07:00:20;;;;;;;39.37;23.20;;;;;;;;;;5110483;28;20921;-70
2022/11/29 07:03:15;;;;;;;45.97;23.23;;;;;;;;;;5110274;28;20446;-71
2022/11/29 07:05:43;;;;;;;49.10;24.13;;;;;;;;;;5110159;28;20434;-71
2022/11/29 07:08:12;;;;;;;35.97;21.10;;;;;;;;;;5109752;28;20469;-70
2022/11/29 07:10:41;;;;;;;52.67;24.33;;;;;;;;;;5110132;28;20457;-71
2022/11/29 07:13:08;;;;;;;46.83;23.87;;;;;;;;;;5109766;28;20496;-70
2022/11/29 07:15:37;;;;;;;37.43;22.20;;;;;;;;;;5109603;28;20454;-70
2022/11/29 07:18:14;;;;;;;35.50;22.25;;;;;;;;;;5109614;28;20441;-70
2022/11/29 07:20:45;;;;;;;44.20;23.93;;;;;;;;;;5109808;28;20216;-70
2022/11/29 07:23:16;;;;;;;46.43;23.87;;;;;;;;;;5109387;28;20431;-70
2022/11/29 07:25:47;;;;;;;40.07;22.13;;;;;;;;;;5096818;28;20522;-70
2022/11/29 07:28:20;;;;;;;40.83;21.87;;;;;;;;;;5095733;28;20470;-70
2022/11/29 07:30:52;;;;;;;31.30;21.70;;;;;;;;;;5096017;28;20443;-70
2022/11/29 07:33:25;;;;;;;37.63;19.97;;;;;;;;;;5096024;28;20476;-71
2022/11/29 07:35:57;;;;;;;35.63;20.20;;;;;;;;;;5096015;28;20439;-70
2022/11/29 07:38:28;;;;;;;40.60;24.13;;;;;;;;;;5096110;28;20828;-70
2022/11/29 07:40:59;;;;;;;39.63;22.13;;;;;;;;;;5096086;28;20901;-70
2022/11/29 07:43:30;;;;;;;42.20;22.93;;;;;;;;;;5095716;28;20435;-70
2022/11/29 07:45:58;;;;;;;35.57;23.63;;;;;;;;;;5095923;28;20446;-70
2022/11/29 07:48:26;;;;;;;37.77;23.13;;;;;;;;;;5095395;28;20466;-70
2022/11/29 07:50:53;;;;;;;38.87;23.50;;;;;;;;;;5095762;28;20451;-70
2022/11/29 07:53:22;;;;;;;39.43;22.80;;;;;;;;;;5095335;28;20486;-70
2022/11/29 07:55:49;;;;;;;47.03;28.03;;;;;;;;;;5095553;28;20453;-70
2022/11/29 07:58:17;;;;;;;40.43;25.37;;;;;;;;;;5095205;28;20486;-70
2022/11/29 08:00:44;;;;;;;41.03;23.63;;;;;;;;;;5095804;28;20446;-70
2022/11/29 08:03:12;;;;;;;33.30;23.30;;;;;;;;;;5095257;28;20821;-70
2022/11/29 08:05:40;;;;;;;41.10;24.23;;;;;;;;;;5095398;28;20808;-70
2022/11/29 08:08:08;;;;;;;42.10;24.50;;;;;;;;;;5095383;28;20472;-70
2022/11/29 08:10:35;;;;;;;35.73;20.30;;;;;;;;;;5094976;28;20455;-70
2022/11/29 08:13:02;;;;;;;34.90;20.90;;;;;;;;;;5095107;28;20858;-70
2022/11/29 08:15:29;;;;;;;35.50;20.77;;;;;;;;;;5094835;28;20473;-70
2022/11/29 08:17:57;;;;;;;39.00;23.40;;;;;;;;;;5095181;28;20467;-70
2022/11/29 08:20:24;;;;;;;39.97;22.77;;;;;;;;;;5095341;28;20850;-70
2022/11/29 08:22:56;;;;;;;37.20;23.00;;;;;;;;;;5095043;28;20455;-70
2022/11/29 08:25:23;;;;;;;37.13;23.60;;;;;;;;;;5095017;28;20537;-70
2022/11/29 08:27:50;;;;;;;33.80;22.17;;;;;;;;;;5094866;28;20827;-70
2022/11/29 08:30:21;;;;;;;36.13;23.97;;;;;;;;;;5094965;28;20451;-70
2022/11/29 08:32:48;;;;;;;35.47;20.90;;;;;;;;;;5094588;28;20446;-70
2022/11/29 08:35:15;;;;;;;29.17;19.93;;;;;;;;;;5094530;28;20864;-71
2022/11/29 08:37:42;;;;;;;29.40;18.90;;;;;;;;;;5093960;28;20463;-71
2022/11/29 08:40:12;;;;;;;34.07;21.20;;;;;;;;;;5094881;28;20446;-70
2022/11/29 08:42:39;;;;;;;30.83;18.50;;;;;;;;;;5094446;28;20459;-70
2022/11/29 08:45:08;;;;;;;43.73;30.27;;;;;;;;;;5094786;28;20449;-70
2022/11/29 08:47:35;;;;;;;60.67;36.97;;;;;;;;;;5094188;28;20482;-71
2022/11/29 08:50:02;;;;;;;37.63;22.90;;;;;;;;;;5094751;28;20442;-70
2022/11/29 08:55:22;;;;;;;84.40;42.00;;;;;;;;;;5037089;28;20536;-70
2022/11/29 08:57:50;;;;;;;158.60;79.17;;;;;;;;;;5094500;28;20831;-70
2022/11/29 09:00:18;;;;;;;39.23;25.30;;;;;;;;;;5094565;28;20442;-70
2022/11/29 09:02:45;;;;;;;31.67;18.90;;;;;;;;;;5094390;28;20529;-70
2022/11/29 09:05:13;;;;;;;43.30;28.13;;;;;;;;;;5094376;28;20447;-70
2022/11/29 09:07:41;;;;;;;32.40;20.07;;;;;;;;;;5094010;28;20854;-70
2022/11/29 09:10:10;;;;;;;32.27;20.37;;;;;;;;;;5094413;28;20901;-70
2022/11/29 09:12:39;;;;;;;36.10;22.23;;;;;;;;;;5094056;28;20947;-70
2022/11/29 09:15:07;;;;;;;31.90;17.77;;;;;;;;;;5093934;28;20846;-70
2022/11/29 09:17:34;;;;;;;30.20;18.43;;;;;;;;;;5094162;28;20471;-70
2022/11/29 09:20:02;;;;;;;33.37;18.87;;;;;;;;;;5093799;28;20523;-70
2022/11/29 09:22:29;;;;;;;27.60;18.20;;;;;;;;;;5094163;28;20435;-70
2022/11/29 09:24:56;;;;;;;28.93;16.90;;;;;;;;;;5094113;28;20431;-70
2022/11/29 09:27:23;;;;;;;33.30;20.23;;;;;;;;;;5093885;28;20493;-70
2022/11/29 09:29:52;;;;;;;29.77;19.60;;;;;;;;;;5093646;28;20441;-70
2022/11/29 09:32:19;;;;;;;25.27;17.20;;;;;;;;;;5093929;28;20455;-70
2022/11/29 09:34:46;;;;;;;25.43;17.03;;;;;;;;;;5093717;28;21014;-70
2022/11/29 09:37:13;;;;;;;25.57;16.70;;;;;;;;;;5093561;28;20474;-70
2022/11/29 09:39:40;;;;;;;30.80;19.10;;;;;;;;;;5093674;28;20455;-70
2022/11/29 09:42:20;;;;;;;28.40;19.00;;;;;;;;;;5093522;28;20443;-70
2022/11/29 09:44:51;;;;;;;31.43;17.73;;;;;;;;;;5093708;28;20445;-70
2022/11/29 09:47:25;;;;;;;24.43;15.93;;;;;;;;;;5093465;28;20930;-70
2022/11/29 09:49:56;;;;;;;25.90;16.67;;;;;;;;;;5093707;28;20434;-70
2022/11/29 09:52:31;;;;;;;25.80;17.20;;;;;;;;;;5093646;28;20884;-70
2022/11/29 09:55:02;;;;;;;29.10;18.77;;;;;;;;;;5093413;28;20552;-70
2022/11/29 09:57:31;;;;;;;26.93;17.70;;;;;;;;;;5093315;28;20482;-70
2022/11/29 10:00:00;;;;;;;29.87;18.93;;;;;;;;;;5093717;28;20457;-69
2022/11/29 10:02:33;;;;;;;31.73;19.17;;;;;;;;;;5093184;28;20450;-69
2022/11/29 10:05:03;;;;;;;27.67;16.27;;;;;;;;;;5093212;28;20441;-70
2022/11/29 10:07:32;;;;;;;26.57;19.63;;;;;;;;;;5093464;28;20839;-70
2022/11/29 10:10:02;;;;;;;32.77;18.07;;;;;;;;;;5093122;28;20443;-70
2022/11/29 10:12:33;;;;;;;28.50;18.83;;;;;;;;;;5093447;28;20462;-69
2022/11/29 10:15:07;;;;;;;26.60;18.73;;;;;;;;;;5093379;28;21046;-69
2022/11/29 10:17:38;;;;;;;25.87;16.80;;;;;;;;;;5093399;28;20505;-69
2022/11/29 10:20:11;;;;;;;31.27;19.90;;;;;;;;;;5093219;28;20488;-69
2022/11/29 10:22:41;;;;;;;22.47;16.60;;;;;;;;;;5093398;28;20492;-69
2022/11/29 10:25:10;;;;;;;32.80;18.67;;;;;;;;;;5093466;28;20431;-69
2022/11/29 10:27:39;;;;;;;25.10;17.27;;;;;;;;;;5093238;28;20474;-69
2022/11/29 10:30:12;;;;;;;23.10;15.30;;;;;;;;;;5092954;28;20455;-69
2022/11/29 10:32:42;;;;;;;27.77;17.77;;;;;;;;;;5093212;28;20441;-70
2022/11/29 10:35:13;;;;;;;25.10;17.30;;;;;;;;;;5093171;28;20989;-70
2022/11/29 10:37:40;;;;;;;22.00;14.20;;;;;;;;;;5092900;28;20502;-70
2022/11/29 10:40:12;;;;;;;24.23;17.10;;;;;;;;;;5093203;28;20970;-69
2022/11/29 10:42:48;;;;;;;31.40;21.43;;;;;;;;;;5092830;28;20439;-69
2022/11/29 10:45:17;;;;;;;25.20;17.47;;;;;;;;;;5093242;28;20888;-69
2022/11/29 10:47:47;;;;;;;23.10;15.00;;;;;;;;;;5092691;28;20466;-69
2022/11/29 10:50:17;;;;;;;16.90;11.40;;;;;;;;;;5093296;28;20958;-70
2022/11/29 10:52:44;;;;;;;25.00;16.77;;;;;;;;;;5093008;28;20447;-69
2022/11/29 10:55:13;;;;;;;25.67;15.20;;;;;;;;;;5092901;28;20470;-70
2022/11/29 10:58:07;;;;;;;24.33;16.00;;;;;;;;;;5092610;28;20470;-70
2022/11/29 11:00:42;;;;;;;23.50;15.53;;;;;;;;;;5095647;28;20459;-70
2022/11/29 11:03:18;;;;;;;20.13;13.00;;;;;;;;;;5096534;28;20439;-70
2022/11/29 11:05:56;;;;;;;21.97;15.30;;;;;;;;;;5097670;28;20806;-69
2022/11/29 11:08:25;;;;;;;18.93;12.90;;;;;;;;;;5096671;28;20473;-69
2022/11/29 11:10:52;;;;;;;20.00;13.80;;;;;;;;;;5096899;28;20863;-69
2022/11/29 11:13:21;;;;;;;23.30;15.33;;;;;;;;;;5096336;28;20463;-70
2022/11/29 11:15:49;;;;;;;22.73;14.87;;;;;;;;;;5096149;28;20852;-70
2022/11/29 11:18:21;;;;;;;19.57;14.33;;;;;;;;;;5096162;28;20479;-70
2022/11/29 11:20:53;;;;;;;19.00;13.20;;;;;;;;;;5096281;28;20457;-70
2022/11/29 11:23:24;;;;;;;20.73;12.77;;;;;;;;;;5096491;28;20435;-70
2022/11/29 11:25:56;;;;;;;17.93;12.10;;;;;;;;;;5096314;28;20499;-69
2022/11/29 11:28:24;;;;;;;20.63;13.37;;;;;;;;;;5097269;28;20479;-69
2022/11/29 11:30:52;;;;;;;15.93;11.23;;;;;;;;;;5096420;28;20571;-69
2022/11/29 11:33:24;;;;;;;16.90;11.70;;;;;;;;;;5096247;28;20446;-69
2022/11/29 11:36:01;;;;;;;15.80;10.27;;;;;;;;;;5095872;28;20477;-69
2022/11/29 11:38:29;;;;;;;26.70;14.57;;;;;;;;;;5096217;28;20453;-70
2022/11/29 11:41:07;;;;;;;19.60;14.23;;;;;;;;;;5095806;28;20446;-70
2022/11/29 11:43:34;;;;;;;28.33;16.77;;;;;;;;;;5095732;28;20430;-69
2022/11/29 11:46:02;;;;;;;28.53;14.17;;;;;;;;;;5095724;28;20454;-69
2022/11/29 11:48:30;;;;;;;21.73;15.00;;;;;;;;;;5096294;28;20806;-69
2022/11/29 11:50:58;;;;;;;24.07;13.47;;;;;;;;;;5095570;28;20457;-69
2022/11/29 11:53:27;;;;;;;24.30;14.23;;;;;;;;;;5096072;28;20455;-69
2022/11/29 11:55:56;;;;;;;20.83;14.13;;;;;;;;;;5095459;28;20483;-69
2022/11/29 11:58:23;;;;;;;22.70;12.60;;;;;;;;;;5095356;28;20479;-70
2022/11/29 12:00:52;;;;;;;22.43;13.13;;;;;;;;;;5095770;28;20431;-70
2022/11/29 12:03:33;;;;;;;39.00;21.07;;;;;;;;;;5095735;28;20816;-70
2022/11/29 12:06:03;;;;;;;19.67;13.80;;;;;;;;;;5095236;28;20435;-70
2022/11/29 12:08:31;;;;;;;14.33;10.97;;;;;;;;;;5095624;28;20888;-70
2022/11/29 12:11:00;;;;;;;21.67;11.17;;;;;;;;;;5095384;28;20450;-70
2022/11/29 12:13:29;;;;;;;22.53;11.97;;;;;;;;;;5095139;28;20879;-69
2022/11/29 12:15:57;;;;;;;19.80;12.00;;;;;;;;;;5094819;28;20492;-69
2022/11/29 12:18:27;;;;;;;27.07;14.73;;;;;;;;;;5094839;28;20505;-69
2022/11/29 12:20:57;;;;;;;16.63;13.43;;;;;;;;;;5095347;28;20797;-69
2022/11/29 12:23:31;;;;;;;21.57;12.37;;;;;;;;;;5095138;28;20541;-69
2022/11/29 12:25:59;;;;;;;19.00;11.40;;;;;;;;;;5094907;28;20442;-69
2022/11/29 12:28:29;;;;;;;20.57;14.10;;;;;;;;;;5095144;28;20451;-69
2022/11/29 12:31:01;;;;;;;26.23;15.03;;;;;;;;;;5094807;28;20455;-69
2022/11/29 12:33:34;;;;;;;22.87;13.00;;;;;;;;;;5095104;28;20439;-69
2022/11/29 12:36:11;;;;;;;26.00;14.73;;;;;;;;;;5094639;28;20467;-69
2022/11/29 12:38:45;;;;;;;32.67;15.10;;;;;;;;;;5094707;28;20441;-69
2022/11/29 12:41:21;;;;;;;22.17;12.53;;;;;;;;;;5095204;28;20916;-69
2022/11/29 12:43:54;;;;;;;24.37;13.90;;;;;;;;;;5095040;28;20439;-69
2022/11/29 12:46:23;;;;;;;28.03;13.03;;;;;;;;;;5094550;28;20439;-69
2022/11/29 12:48:55;;;;;;;36.13;14.37;;;;;;;;;;5094764;28;20461;-69
2022/11/29 12:51:28;;;;;;;29.43;15.20;;;;;;;;;;5094535;28;20968;-70
2022/11/29 12:54:03;;;;;;;22.70;14.13;;;;;;;;;;5094552;28;20770;-70
2022/11/29 12:56:35;;;;;;;30.27;14.90;;;;;;;;;;5094312;28;20468;-70
2022/11/29 12:59:10;;;;;;;24.30;13.90;;;;;;;;;;5094763;28;20437;-70
2022/11/29 13:01:51;;;;;;;26.47;14.30;;;;;;;;;;5094341;28;20450;-70
2022/11/29 13:04:22;;;;;;;34.80;15.63;;;;;;;;;;5094572;28;20442;-70
2022/11/29 13:06:56;;;;;;;26.97;15.43;;;;;;;;;;5094411;28;20837;-69
2022/11/29 13:09:35;;;;;;;32.67;17.00;;;;;;;;;;5094427;28;20824;-70
2022/11/29 13:12:04;;;;;;;24.33;14.23;;;;;;;;;;5093949;28;20443;-69
2022/11/29 13:14:35;;;;;;;28.53;16.57;;;;;;;;;;5093840;28;20471;-70
2022/11/29 13:17:03;;;;;;;31.37;16.43;;;;;;;;;;5094012;28;20481;-70
2022/11/29 13:19:36;;;;;;;27.37;15.27;;;;;;;;;;5094276;28;20458;-70
2022/11/29 13:22:09;;;;;;;24.50;16.27;;;;;;;;;;5093890;28;20445;-70
2022/11/29 13:24:38;;;;;;;25.47;14.53;;;;;;;;;;5094324;28;20427;-70
2022/11/29 13:27:07;;;;;;;22.53;13.80;;;;;;;;;;5094125;28;20993;-69
2022/11/29 13:29:34;;;;;;;27.93;14.40;;;;;;;;;;5093961;28;20466;-69
2022/11/29 13:32:02;;;;;;;33.70;18.80;;;;;;;;;;5093757;28;20458;-69
2022/11/29 13:34:31;;;;;;;30.60;15.33;;;;;;;;;;5093793;28;20487;-69
2022/11/29 13:37:02;;;;;;;30.73;15.80;;;;;;;;;;5093817;28;20466;-69
2022/11/29 13:39:48;;;;;;;32.07;18.07;;;;;;;;;;5093689;28;20952;-69
2022/11/29 13:42:17;;;;;;;26.43;14.80;;;;;;;;;;5093610;28;20434;-70
2022/11/29 13:44:46;;;;;;;32.40;20.77;;;;;;;;;;5093875;28;20940;-69
2022/11/29 13:47:14;;;;;;;31.30;17.13;;;;;;;;;;5093532;28;20474;-71
2022/11/29 13:49:53;;;;;;;24.90;15.63;;;;;;;;;;5093535;28;20549;-71
2022/11/29 13:52:34;;;;;;;28.97;14.77;;;;;;;;;;5093760;28;20446;-70
2022/11/29 13:55:08;;;;;;;34.07;18.47;;;;;;;;;;5093604;28;20470;-70
2022/11/29 13:57:47;;;;;;;27.10;13.60;;;;;;;;;;5093549;28;21002;-70
2022/11/29 14:00:27;;;;;;;33.23;15.53;;;;;;;;;;5093327;28;20454;-70
2022/11/29 14:02:54;;;;;;;29.20;15.60;;;;;;;;;;5093534;28;20430;-70
2022/11/29 14:05:25;;;;;;;27.97;14.70;;;;;;;;;;5093599;28;20817;-70
2022/11/29 14:08:11;;;;;;;27.90;14.40;;;;;;;;;;5093126;28;20471;-70
2022/11/29 14:10:40;;;;;;;35.33;18.43;;;;;;;;;;5092292;28;20457;-71
2022/11/29 14:13:14;;;;;;;38.23;17.57;;;;;;;;;;5092918;28;20490;-71
2022/11/29 14:15:42;;;;;;;35.53;16.20;;;;;;;;;;5092701;28;20564;-71
2022/11/29 14:18:30;;;;;;;31.60;15.50;;;;;;;;;;5093042;28;20475;-71
2022/11/29 14:20:58;;;;;;;28.40;15.57;;;;;;;;;;5092737;28;20473;-70
2022/11/29 14:23:33;;;;;;;30.90;17.17;;;;;;;;;;5093103;28;20825;-70
2022/11/29 14:26:18;;;;;;;30.77;17.00;;;;;;;;;;5092902;28;20962;-70
2022/11/29 14:28:46;;;;;;;20.83;13.63;;;;;;;;;;5082882;28;20982;-70
2022/11/29 14:31:34;;;;;;;25.60;13.87;;;;;;;;;;5092903;28;20453;-70
2022/11/29 14:34:06;;;;;;;29.90;16.77;;;;;;;;;;5092772;28;20457;-70
2022/11/29 14:36:46;;;;;;;36.70;17.73;;;;;;;;;;5097105;28;20493;-70
2022/11/29 14:39:25;;;;;;;31.87;14.87;;;;;;;;;;5096811;28;20459;-70
2022/11/29 14:41:56;;;;;;;32.43;17.20;;;;;;;;;;5096777;28;20816;-70
2022/11/29 14:44:26;;;;;;;35.83;15.97;;;;;;;;;;5097092;28;20435;-70
2022/11/29 14:47:00;;;;;;;25.40;15.90;;;;;;;;;;5096893;28;20477;-72